Time;durP1;ratioP1;P1;durP2;ratioP2;P2;SDS_P1;SDS_P2;PMS_P1;PMS_P2;Temp;Humidity;BMP_temperature;BMP_pressure;BME280_temperature;BME280_humidity;BME280_pressure;Samples;Min_cycle;Max_cycle;Signal;HPM_P1;HPM_P2
2024/01/08 00:02:05;;;;;;;4.10;2.20;;;-0.70;99.90;;;;;;4982863;28;20429;-69
2024/01/08 00:04:32;;;;;;;3.27;2.53;;;-0.80;99.90;;;;;;4984944;28;20550;-69
2024/01/08 00:07:00;;;;;;;1.23;1.10;;;-0.80;99.90;;;;;;4980209;28;20458;-69
2024/01/08 00:09:26;;;;;;;1.67;1.57;;;-0.70;99.90;;;;;;4989102;28;20424;-69
2024/01/08 00:11:53;;;;;;;4.63;2.50;;;-0.90;99.90;;;;;;4981762;28;20463;-69
2024/01/08 00:14:20;;;;;;;10.00;3.90;;;-0.80;99.90;;;;;;4984717;28;20477;-69
2024/01/08 00:16:47;;;;;;;1.97;1.40;;;-0.70;99.90;;;;;;4981939;28;21041;-69
2024/01/08 00:19:13;;;;;;;1.37;1.27;;;-0.80;99.90;;;;;;4981874;28;20466;-69
2024/01/08 00:21:41;;;;;;;2.50;2.30;;;-0.70;99.90;;;;;;4986232;28;20466;-69
2024/01/08 00:24:09;;;;;;;2.20;1.63;;;-0.80;99.90;;;;;;4985276;28;20469;-69
2024/01/08 00:26:36;;;;;;;2.40;2.20;;;-0.90;99.90;;;;;;4982219;28;20526;-69
2024/01/08 00:29:03;;;;;;;2.93;2.43;;;-0.90;99.90;;;;;;4982398;28;20925;-69
2024/01/08 00:31:30;;;;;;;2.43;2.10;;;-0.80;99.90;;;;;;4979104;28;20433;-69
2024/01/08 00:33:57;;;;;;;1.40;1.30;;;-0.70;99.90;;;;;;4986403;28;20448;-69
2024/01/08 00:36:24;;;;;;;4.40;2.30;;;-0.80;99.90;;;;;;4978772;28;20471;-69
2024/01/08 00:38:51;;;;;;;1.67;1.57;;;-1.00;99.90;;;;;;4982664;28;20443;-68
2024/01/08 00:41:19;;;;;;;2.70;1.47;;;-1.00;99.90;;;;;;4980455;28;20467;-69
2024/01/08 00:43:46;;;;;;;2.30;1.23;;;-1.10;99.90;;;;;;4981587;28;20987;-69
2024/01/08 00:46:13;;;;;;;2.00;1.77;;;-1.20;99.90;;;;;;4987027;28;20523;-69
2024/01/08 00:48:40;;;;;;;1.17;1.07;;;-1.20;99.90;;;;;;4982505;28;20453;-69
2024/01/08 00:51:09;;;;;;;2.70;1.50;;;-1.20;99.90;;;;;;4984154;28;20451;-69
2024/01/08 00:53:36;;;;;;;2.00;1.60;;;-1.20;99.90;;;;;;4980710;28;20447;-69
2024/01/08 00:56:02;;;;;;;0.90;0.80;;;-1.30;99.90;;;;;;4986483;28;20428;-69
2024/01/08 00:58:30;;;;;;;1.40;1.30;;;-1.40;99.90;;;;;;4983085;28;20450;-69
2024/01/08 01:00:57;;;;;;;3.53;2.57;;;-1.60;99.90;;;;;;4977503;28;20425;-69
2024/01/08 01:03:25;;;;;;;2.80;2.43;;;-1.60;99.90;;;;;;4979075;28;20416;-69
2024/01/08 01:05:51;;;;;;;1.83;1.47;;;-1.50;99.90;;;;;;4980040;28;20476;-69
2024/01/08 01:08:18;;;;;;;5.23;3.40;;;-1.50;99.90;;;;;;4980541;28;20433;-69
2024/01/08 01:10:45;;;;;;;2.13;2.00;;;-1.60;99.90;;;;;;4975830;28;20435;-69
2024/01/08 01:13:12;;;;;;;1.20;0.90;;;-1.50;99.90;;;;;;4976162;28;20433;-69
2024/01/08 01:15:40;;;;;;;4.70;1.50;;;-1.60;99.90;;;;;;4974760;28;20449;-69
2024/01/08 01:18:07;;;;;;;1.43;1.33;;;-1.50;99.90;;;;;;4983509;28;21172;-69
2024/01/08 01:20:33;;;;;;;1.40;1.30;;;-1.60;99.90;;;;;;4984878;28;20464;-69
2024/01/08 01:23:00;;;;;;;3.10;2.00;;;-1.60;99.90;;;;;;4983746;28;20441;-69
2024/01/08 01:25:27;;;;;;;7.20;2.10;;;-1.60;99.90;;;;;;4981801;28;20497;-69
2024/01/08 01:27:54;;;;;;;2.63;2.10;;;-1.60;99.90;;;;;;4978260;28;20456;-69
2024/01/08 01:30:21;;;;;;;1.83;1.73;;;-1.50;99.90;;;;;;4979977;28;20452;-69
2024/01/08 01:32:49;;;;;;;1.90;1.80;;;-1.40;99.90;;;;;;4980158;28;20539;-69
2024/01/08 01:35:16;;;;;;;2.50;1.90;;;-1.40;99.90;;;;;;4981333;28;20789;-69
2024/01/08 01:37:44;;;;;;;1.80;1.70;;;-1.40;99.90;;;;;;4984093;28;20484;-69
2024/01/08 01:40:11;;;;;;;7.27;3.37;;;-1.30;99.90;;;;;;4970761;28;21011;-69
2024/01/08 01:42:38;;;;;;;4.67;2.07;;;-1.20;99.90;;;;;;4978762;28;20436;-69
2024/01/08 01:45:06;;;;;;;1.70;1.60;;;-1.10;99.90;;;;;;4978010;28;20843;-68
2024/01/08 01:47:33;;;;;;;7.87;2.60;;;-1.10;99.90;;;;;;4979861;28;20429;-69
2024/01/08 01:50:01;;;;;;;3.07;1.83;;;-1.00;99.90;;;;;;4976927;28;21021;-69
2024/01/08 01:52:28;;;;;;;1.93;0.90;;;-1.00;99.90;;;;;;4979262;28;20437;-69
2024/01/08 01:54:55;;;;;;;15.73;2.30;;;-1.00;99.90;;;;;;4982973;28;20550;-69
2024/01/08 01:57:22;;;;;;;3.27;3.07;;;-0.90;99.90;;;;;;4977150;28;20472;-69
2024/01/08 01:59:49;;;;;;;2.87;1.70;;;-1.00;99.90;;;;;;4977701;28;20444;-69
2024/01/08 02:02:16;;;;;;;1.67;1.57;;;-1.00;99.90;;;;;;4980510;28;20458;-69
2024/01/08 02:04:44;;;;;;;1.10;1.00;;;-1.00;99.90;;;;;;4972490;28;20490;-69
2024/01/08 02:07:14;;;;;;;3.33;3.10;;;-1.10;99.90;;;;;;4977638;28;20976;-69
2024/01/08 02:09:41;;;;;;;1.43;1.33;;;-1.10;99.90;;;;;;4983540;28;20470;-69
2024/01/08 02:12:08;;;;;;;3.77;1.47;;;-1.10;99.90;;;;;;4980173;28;20893;-68
2024/01/08 02:14:35;;;;;;;6.40;2.67;;;-1.10;99.90;;;;;;4980212;28;20497;-69
2024/01/08 02:17:01;;;;;;;1.97;1.23;;;-1.10;99.90;;;;;;4986859;28;20988;-69
2024/01/08 02:19:28;;;;;;;5.43;1.90;;;-1.00;99.90;;;;;;4979380;28;20436;-69
2024/01/08 02:21:55;;;;;;;2.57;1.60;;;-1.00;99.90;;;;;;4977514;28;20448;-69
2024/01/08 02:24:27;;;;;;;3.20;1.93;;;-1.00;99.90;;;;;;4980991;28;20482;-69
2024/01/08 02:26:54;;;;;;;0.90;0.80;;;-1.10;99.90;;;;;;4979164;28;20462;-69
2024/01/08 02:29:21;;;;;;;1.93;1.70;;;-1.30;99.90;;;;;;4980095;28;20436;-69
2024/01/08 02:31:48;;;;;;;3.97;2.10;;;-1.20;99.90;;;;;;4982381;28;20857;-69
2024/01/08 02:34:15;;;;;;;4.50;2.53;;;-1.30;99.90;;;;;;4980436;28;20485;-69
2024/01/08 02:36:41;;;;;;;4.13;3.03;;;-1.20;99.90;;;;;;4981790;28;20895;-69
2024/01/08 02:39:08;;;;;;;5.90;3.63;;;-1.10;99.90;;;;;;4982755;28;20469;-69
2024/01/08 02:41:36;;;;;;;2.13;1.53;;;-1.00;99.90;;;;;;4973401;28;20470;-69
2024/01/08 02:44:03;;;;;;;2.47;2.27;;;-1.20;99.90;;;;;;4976604;28;20829;-69
2024/01/08 02:46:30;;;;;;;1.70;1.60;;;-1.10;99.90;;;;;;4975361;28;20443;-69
2024/01/08 02:48:58;;;;;;;2.03;1.83;;;-1.10;99.90;;;;;;4974930;28;20434;-74
2024/01/08 02:51:25;;;;;;;1.43;1.30;;;-1.20;99.90;;;;;;4974662;28;20472;-69
2024/01/08 02:53:52;;;;;;;8.93;2.50;;;-1.10;99.90;;;;;;4974064;28;20841;-69
2024/01/08 02:56:19;;;;;;;2.13;1.57;;;-1.00;99.90;;;;;;4973796;28;21361;-69
2024/01/08 02:58:48;;;;;;;2.43;1.80;;;-1.10;99.90;;;;;;4973938;28;20550;-69
2024/01/08 03:01:14;;;;;;;2.43;1.90;;;-1.00;99.90;;;;;;4971494;28;20497;-69
2024/01/08 03:03:41;;;;;;;2.03;1.93;;;-1.00;99.90;;;;;;4977988;28;20948;-69
2024/01/08 03:06:08;;;;;;;2.03;1.83;;;-0.80;99.90;;;;;;4974107;28;20429;-69
2024/01/08 03:08:35;;;;;;;3.63;2.70;;;-0.80;99.90;;;;;;4972770;28;20942;-69
2024/01/08 03:11:02;;;;;;;1.37;1.13;;;-0.90;99.90;;;;;;4976103;28;20463;-69
2024/01/08 03:13:29;;;;;;;3.43;2.00;;;-0.90;99.90;;;;;;4973934;28;20448;-69
2024/01/08 03:15:57;;;;;;;1.57;1.47;;;-0.90;99.90;;;;;;4975867;28;20455;-69
2024/01/08 03:18:23;;;;;;;2.23;1.70;;;-1.00;99.90;;;;;;4956917;28;20468;-69
2024/01/08 03:20:50;;;;;;;2.13;1.50;;;-1.00;99.90;;;;;;4969738;28;20968;-69
2024/01/08 03:23:17;;;;;;;4.27;2.73;;;-0.80;99.90;;;;;;4978584;28;20428;-69
2024/01/08 03:25:44;;;;;;;2.63;2.10;;;-0.90;99.90;;;;;;4976026;28;20481;-69
2024/01/08 03:28:10;;;;;;;2.67;2.47;;;-0.80;99.90;;;;;;4974231;28;20463;-69
2024/01/08 03:30:37;;;;;;;5.47;3.07;;;-0.90;99.90;;;;;;4976732;28;20458;-69
2024/01/08 03:33:05;;;;;;;3.10;1.97;;;-0.90;99.90;;;;;;4978477;28;20472;-69
2024/01/08 03:35:32;;;;;;;1.03;0.87;;;-0.80;99.90;;;;;;4973162;28;20478;-69
2024/01/08 03:37:59;;;;;;;1.40;1.20;;;-0.90;99.90;;;;;;4970950;28;20456;-69
2024/01/08 03:40:26;;;;;;;1.87;1.47;;;-0.90;99.90;;;;;;4967371;28;20465;-69
2024/01/08 03:42:52;;;;;;;6.03;3.00;;;-1.00;99.90;;;;;;4984973;28;20432;-69
2024/01/08 03:45:19;;;;;;;2.20;1.90;;;-0.90;99.90;;;;;;4982063;28;20838;-69
2024/01/08 03:47:46;;;;;;;2.60;2.23;;;-0.90;99.90;;;;;;4979831;28;20444;-69
2024/01/08 03:50:14;;;;;;;3.67;3.27;;;-1.00;99.90;;;;;;4985631;28;20458;-69
2024/01/08 03:52:41;;;;;;;3.33;1.93;;;-1.00;99.90;;;;;;4980796;28;20448;-69
2024/01/08 03:55:09;;;;;;;1.63;1.53;;;-1.10;99.90;;;;;;4982709;28;20461;-69
2024/01/08 03:57:36;;;;;;;4.60;2.43;;;-1.20;99.90;;;;;;4980908;28;20508;-69
2024/01/08 04:00:04;;;;;;;2.87;2.60;;;-1.10;99.90;;;;;;4986037;28;20505;-69
2024/01/08 04:02:30;;;;;;;3.10;1.33;;;-1.20;99.90;;;;;;4989193;28;20435;-69
2024/01/08 04:04:57;;;;;;;1.43;1.33;;;-1.20;99.90;;;;;;4988138;28;20762;-69
2024/01/08 04:07:25;;;;;;;2.07;1.87;;;-1.20;99.90;;;;;;4989560;28;20420;-69
2024/01/08 04:09:52;;;;;;;1.43;1.33;;;-1.20;99.90;;;;;;4984099;28;20535;-69
2024/01/08 04:12:18;;;;;;;2.10;1.90;;;-1.20;99.90;;;;;;4989443;28;20462;-69
2024/01/08 04:14:45;;;;;;;1.37;1.27;;;-1.20;99.90;;;;;;4985034;28;21005;-69
2024/01/08 04:17:12;;;;;;;2.80;1.93;;;-1.10;99.90;;;;;;4984773;28;20464;-69
2024/01/08 04:19:39;;;;;;;2.37;1.83;;;-1.30;99.90;;;;;;4984873;28;20462;-69
2024/01/08 04:22:05;;;;;;;3.20;2.90;;;-1.20;99.90;;;;;;4991025;28;20458;-68
2024/01/08 04:24:33;;;;;;;2.70;2.10;;;-1.20;99.90;;;;;;4987801;28;20471;-68
2024/01/08 04:27:00;;;;;;;7.70;2.60;;;-1.10;99.90;;;;;;4987134;28;20443;-68
2024/01/08 04:29:27;;;;;;;2.23;2.03;;;-1.00;99.90;;;;;;4985012;28;20905;-68
2024/01/08 04:31:53;;;;;;;1.93;1.80;;;-0.90;99.90;;;;;;4982526;28;20458;-68
2024/01/08 04:34:20;;;;;;;1.30;1.20;;;-1.00;99.90;;;;;;4985477;28;20484;-68
2024/01/08 04:36:47;;;;;;;3.87;2.83;;;-1.10;99.90;;;;;;4982639;28;20441;-68
2024/01/08 04:39:14;;;;;;;7.20;3.13;;;-1.00;99.90;;;;;;4985567;28;20468;-68
2024/01/08 04:41:42;;;;;;;2.80;2.60;;;-1.00;99.90;;;;;;4983388;28;20537;-68
2024/01/08 04:44:10;;;;;;;2.00;1.80;;;-1.00;99.90;;;;;;4985749;28;20453;-68
2024/01/08 04:46:37;;;;;;;11.33;2.90;;;-1.10;99.90;;;;;;4987764;28;20450;-68
2024/01/08 04:49:04;;;;;;;3.23;2.93;;;-1.10;99.90;;;;;;4984079;28;20896;-68
2024/01/08 04:51:31;;;;;;;5.63;2.27;;;-1.20;99.90;;;;;;4982935;28;20456;-68
2024/01/08 04:53:58;;;;;;;12.03;3.37;;;-1.10;99.90;;;;;;4987798;28;20449;-68
2024/01/08 04:56:27;;;;;;;6.80;2.50;;;-1.00;99.90;;;;;;4993033;28;20550;-69
2024/01/08 04:58:55;;;;;;;2.20;1.60;;;-0.90;99.90;;;;;;4983699;28;20970;-69
2024/01/08 05:01:22;;;;;;;6.37;2.80;;;-0.90;99.90;;;;;;4987395;28;20468;-69
2024/01/08 05:03:49;;;;;;;2.27;2.10;;;-0.90;99.90;;;;;;4978913;28;20462;-69
2024/01/08 05:06:17;;;;;;;2.33;1.37;;;-0.90;99.90;;;;;;4988346;28;20416;-69
2024/01/08 05:08:44;;;;;;;3.63;1.93;;;-1.00;99.90;;;;;;4982974;28;20440;-69
2024/01/08 05:11:12;;;;;;;0.90;0.80;;;-0.90;99.90;;;;;;4985398;28;20445;-69
2024/01/08 05:13:40;;;;;;;4.80;3.17;;;-1.00;99.90;;;;;;4985612;28;20429;-69
2024/01/08 05:16:08;;;;;;;4.77;3.23;;;-1.10;99.90;;;;;;4986402;28;20445;-69
2024/01/08 05:18:35;;;;;;;3.97;3.30;;;-0.90;99.90;;;;;;4981249;28;20493;-69
2024/01/08 05:21:02;;;;;;;5.20;2.83;;;-0.60;99.90;;;;;;4987024;28;20480;-68
2024/01/08 05:23:29;;;;;;;2.67;1.93;;;-0.70;99.90;;;;;;4987209;28;20466;-69
2024/01/08 05:25:58;;;;;;;4.40;2.63;;;-0.60;99.90;;;;;;4985859;28;20527;-69
2024/01/08 05:28:25;;;;;;;4.40;3.10;;;-0.70;99.90;;;;;;4986795;28;20875;-69
2024/01/08 05:30:52;;;;;;;5.43;3.87;;;-0.80;99.90;;;;;;4985980;28;20958;-68
2024/01/08 05:33:20;;;;;;;2.23;2.03;;;-0.90;99.90;;;;;;4983182;28;20485;-69
2024/01/08 05:35:47;;;;;;;2.63;2.40;;;-0.90;99.90;;;;;;4982586;28;20445;-69
2024/01/08 05:38:14;;;;;;;3.90;3.57;;;-0.90;99.90;;;;;;4985832;28;20468;-69
2024/01/08 05:40:41;;;;;;;3.63;1.87;;;-1.00;99.90;;;;;;4983720;28;20441;-69
2024/01/08 05:43:07;;;;;;;6.30;2.17;;;-1.00;99.90;;;;;;4980253;28;20452;-69
2024/01/08 05:45:34;;;;;;;5.77;3.10;;;-0.80;99.90;;;;;;4983015;28;20461;-69
2024/01/08 05:48:01;;;;;;;1.50;1.40;;;-0.70;99.90;;;;;;4985231;28;20469;-69
2024/01/08 05:50:29;;;;;;;3.00;2.77;;;-0.60;99.90;;;;;;4982886;28;20825;-69
2024/01/08 05:52:56;;;;;;;4.80;2.83;;;-0.70;99.90;;;;;;4983699;28;20457;-69
2024/01/08 05:55:23;;;;;;;3.87;3.57;;;-0.50;99.90;;;;;;4984116;28;20478;-69
2024/01/08 05:57:50;;;;;;;3.80;3.30;;;-0.60;99.90;;;;;;4987505;28;20941;-68
2024/01/08 06:00:18;;;;;;;5.53;3.47;;;-0.60;99.90;;;;;;4986450;28;20473;-69
2024/01/08 06:02:45;;;;;;;2.57;2.37;;;-0.70;99.90;;;;;;4986157;28;20941;-69
2024/01/08 06:05:12;;;;;;;2.77;2.50;;;-0.70;99.90;;;;;;4986347;28;20471;-69
2024/01/08 06:07:40;;;;;;;16.93;3.30;;;-0.70;99.90;;;;;;4990674;28;20848;-69
2024/01/08 06:10:08;;;;;;;3.20;2.90;;;-0.70;99.90;;;;;;4988094;28;21241;-69
2024/01/08 06:12:34;;;;;;;4.33;2.80;;;-0.90;99.90;;;;;;4987964;28;20454;-68
2024/01/08 06:15:01;;;;;;;4.60;2.60;;;-0.90;99.90;;;;;;4984701;28;20467;-69
2024/01/08 06:17:28;;;;;;;5.40;3.23;;;-0.90;99.90;;;;;;4987986;28;20481;-69
2024/01/08 06:19:54;;;;;;;2.50;2.27;;;-0.70;99.90;;;;;;4979305;28;20468;-69
2024/01/08 06:22:21;;;;;;;2.60;2.43;;;-0.70;99.90;;;;;;4985885;28;20466;-68
2024/01/08 06:24:49;;;;;;;3.80;2.47;;;-0.70;99.90;;;;;;4982950;28;20472;-69
2024/01/08 06:27:17;;;;;;;1.87;1.43;;;-0.80;99.90;;;;;;4989543;28;20457;-69
2024/01/08 06:29:43;;;;;;;3.80;3.40;;;-0.70;99.90;;;;;;4986023;28;20432;-68
2024/01/08 06:32:11;;;;;;;1.47;1.37;;;-0.80;99.90;;;;;;4986025;28;20454;-69
2024/01/08 06:34:37;;;;;;;3.47;2.47;;;-0.80;99.90;;;;;;4982606;28;20980;-69
2024/01/08 06:37:04;;;;;;;3.50;3.20;;;-0.80;99.90;;;;;;4983607;28;20585;-68
2024/01/08 06:39:31;;;;;;;3.77;1.13;;;-0.70;99.90;;;;;;4989567;28;20468;-68
2024/01/08 06:41:59;;;;;;;1.93;1.40;;;-0.70;99.90;;;;;;4984844;28;20421;-69
2024/01/08 06:44:26;;;;;;;2.27;2.07;;;-0.70;99.90;;;;;;4992020;28;20795;-69
2024/01/08 06:46:52;;;;;;;2.30;2.20;;;-0.80;99.90;;;;;;4983552;28;20440;-69
2024/01/08 06:49:19;;;;;;;3.63;3.00;;;-0.80;99.90;;;;;;4990950;28;20436;-69
2024/01/08 06:51:46;;;;;;;1.70;1.47;;;-0.70;99.90;;;;;;4985084;28;20565;-69
2024/01/08 06:54:13;;;;;;;2.30;2.00;;;-0.60;99.90;;;;;;4995992;28;20460;-69
2024/01/08 06:56:40;;;;;;;2.70;2.30;;;-0.60;99.90;;;;;;4989346;28;20462;-69
2024/01/08 06:59:08;;;;;;;3.00;2.80;;;-0.70;99.90;;;;;;4991823;28;20469;-69
2024/01/08 07:01:35;;;;;;;4.97;2.13;;;-0.60;99.90;;;;;;4985585;28;20467;-69
2024/01/08 07:04:02;;;;;;;5.07;2.93;;;-0.60;99.90;;;;;;4987619;28;20478;-69
2024/01/08 07:06:29;;;;;;;1.80;1.70;;;-0.60;99.90;;;;;;4980726;28;20444;-68
2024/01/08 07:08:55;;;;;;;7.60;2.43;;;-0.80;99.90;;;;;;4982645;28;20898;-69
2024/01/08 07:11:23;;;;;;;3.90;2.43;;;-0.60;99.90;;;;;;4983342;28;20441;-68
2024/01/08 07:13:50;;;;;;;1.63;1.53;;;-0.50;99.90;;;;;;4984699;28;20466;-68
2024/01/08 07:16:19;;;;;;;1.50;1.40;;;-0.40;99.90;;;;;;4987627;28;20624;-68
2024/01/08 07:18:46;;;;;;;6.17;5.77;;;-0.60;99.90;;;;;;4986477;28;20497;-69
2024/01/08 07:21:16;;;;;;;6.20;4.03;;;-0.70;99.90;;;;;;4986205;28;20466;-68
2024/01/08 07:23:44;;;;;;;2.87;2.13;;;-0.60;99.90;;;;;;4981738;28;20490;-69
2024/01/08 07:26:14;;;;;;;2.37;2.17;;;-0.60;99.90;;;;;;4992398;28;20771;-69
2024/01/08 07:28:40;;;;;;;4.33;2.17;;;-0.60;99.90;;;;;;4984681;28;20413;-68
2024/01/08 07:31:07;;;;;;;3.00;2.10;;;-0.50;99.90;;;;;;4987207;28;20426;-69
2024/01/08 07:33:37;;;;;;;5.37;3.87;;;-0.60;99.90;;;;;;5004699;23;20497;-66
2024/01/08 07:36:05;;;;;;;2.70;2.40;;;-0.70;99.90;;;;;;4986326;28;20531;-67
2024/01/08 07:38:31;;;;;;;2.37;1.33;;;-0.60;99.90;;;;;;4986238;28;20486;-67
2024/01/08 07:40:59;;;;;;;1.60;1.50;;;-0.60;99.90;;;;;;4988332;28;20815;-68
2024/01/08 07:43:26;;;;;;;4.97;1.87;;;-0.60;99.90;;;;;;4990203;28;20469;-68
2024/01/08 07:45:54;;;;;;;2.40;2.20;;;-0.40;99.90;;;;;;4987780;28;20458;-67
2024/01/08 07:48:20;;;;;;;5.53;1.73;;;-0.60;99.90;;;;;;4977570;28;20445;-67
2024/01/08 07:50:48;;;;;;;3.03;2.63;;;-0.60;99.90;;;;;;4985211;28;20462;-67
2024/01/08 07:53:16;;;;;;;1.30;1.20;;;-0.50;99.90;;;;;;4986585;28;20995;-67
2024/01/08 07:55:43;;;;;;;1.00;0.90;;;-0.50;99.90;;;;;;4987685;28;20911;-67
2024/01/08 07:58:13;;;;;;;2.03;1.90;;;-0.60;99.90;;;;;;4986794;28;20417;-67
2024/01/08 08:00:40;;;;;;;1.00;0.90;;;-0.60;99.90;;;;;;4985299;28;20454;-67
2024/01/08 08:03:06;;;;;;;4.17;1.87;;;-0.60;99.90;;;;;;4983973;28;20442;-67
2024/01/08 08:05:33;;;;;;;3.10;2.03;;;-0.60;99.90;;;;;;4985276;28;20496;-67
2024/01/08 08:08:02;;;;;;;3.67;3.40;;;-0.60;99.90;;;;;;4985723;28;20450;-67
2024/01/08 08:10:29;;;;;;;4.13;2.53;;;-0.60;99.90;;;;;;4984869;28;20460;-67
2024/01/08 08:12:56;;;;;;;2.00;1.90;;;-0.60;99.90;;;;;;4986852;28;20470;-66
2024/01/08 08:15:22;;;;;;;2.27;1.97;;;-0.70;99.90;;;;;;4983459;28;20453;-67
2024/01/08 08:17:50;;;;;;;2.67;2.50;;;-0.80;99.90;;;;;;4979176;28;20548;-67
2024/01/08 08:20:17;;;;;;;6.00;2.70;;;-0.60;99.90;;;;;;4987560;28;20928;-67
2024/01/08 08:22:43;;;;;;;3.33;2.30;;;-0.50;99.90;;;;;;4987432;28;20540;-67
2024/01/08 08:25:11;;;;;;;2.83;2.63;;;-0.50;99.90;;;;;;4986924;28;20752;-67
2024/01/08 08:27:38;;;;;;;3.70;3.40;;;-0.50;99.90;;;;;;4985184;28;20817;-67
2024/01/08 08:30:08;;;;;;;4.90;3.23;;;-0.50;99.90;;;;;;4989719;28;20456;-67
2024/01/08 08:32:34;;;;;;;2.23;2.03;;;-0.50;99.90;;;;;;4985802;28;20449;-67
2024/01/08 08:35:02;;;;;;;6.23;4.13;;;-0.50;99.90;;;;;;4986741;28;20966;-67
2024/01/08 08:37:29;;;;;;;3.30;1.87;;;-0.60;99.90;;;;;;4982075;28;20437;-67
2024/01/08 08:39:56;;;;;;;2.10;1.60;;;-0.70;99.90;;;;;;4986394;28;20454;-66
2024/01/08 08:42:24;;;;;;;1.73;1.33;;;-0.80;99.90;;;;;;4982849;28;20770;-67
2024/01/08 08:44:51;;;;;;;12.90;3.07;;;-0.70;99.90;;;;;;4985742;28;20445;-66
2024/01/08 08:47:17;;;;;;;1.20;1.10;;;-0.70;99.90;;;;;;4988972;28;20447;-65
2024/01/08 08:49:44;;;;;;;3.00;2.23;;;-0.70;99.90;;;;;;4982828;28;20468;-67
2024/01/08 08:52:11;;;;;;;1.73;1.57;;;-0.70;99.90;;;;;;4986320;28;20947;-67
2024/01/08 08:54:37;;;;;;;1.63;1.30;;;-0.70;99.90;;;;;;4985993;28;20482;-66
2024/01/08 08:57:04;;;;;;;1.57;1.33;;;-0.40;99.90;;;;;;4990395;28;20437;-66
2024/01/08 08:59:37;;;;;;;0.90;0.70;;;0.00;99.90;;;;;;4977555;28;21182;-67
2024/01/08 09:02:03;;;;;;;1.77;0.80;;;0.40;99.90;;;;;;4988123;28;20446;-67
2024/01/08 09:04:30;;;;;;;1.50;1.30;;;0.90;99.90;;;;;;4985453;28;20474;-68
2024/01/08 09:06:57;;;;;;;2.90;1.43;;;1.00;99.90;;;;;;4988514;28;20443;-68
2024/01/08 09:09:24;;;;;;;3.53;2.43;;;0.90;99.90;;;;;;4982244;28;20480;-67
2024/01/08 09:11:50;;;;;;;2.13;1.93;;;0.40;99.90;;;;;;4984910;28;20459;-68
2024/01/08 09:14:17;;;;;;;3.30;2.17;;;0.30;99.90;;;;;;4985441;28;20440;-68
2024/01/08 09:16:46;;;;;;;1.83;1.70;;;0.20;99.90;;;;;;4989879;28;20671;-68
2024/01/08 09:19:12;;;;;;;2.97;2.77;;;0.30;99.90;;;;;;4975670;28;20424;-68
2024/01/08 09:21:39;;;;;;;1.90;1.37;;;0.40;99.90;;;;;;4984848;28;20452;-67
2024/01/08 09:24:06;;;;;;;1.30;1.20;;;0.40;99.90;;;;;;4981892;28;20464;-68
2024/01/08 09:26:33;;;;;;;2.43;1.13;;;0.60;99.90;;;;;;4983512;28;20980;-67
2024/01/08 09:29:00;;;;;;;3.33;3.00;;;0.70;99.90;;;;;;4987473;28;20481;-68
2024/01/08 09:31:27;;;;;;;2.93;2.73;;;0.70;99.90;;;;;;4984986;28;20953;-67
2024/01/08 09:33:55;;;;;;;1.43;1.33;;;0.40;99.90;;;;;;4982604;28;20459;-68
2024/01/08 09:36:22;;;;;;;1.30;1.20;;;0.30;99.90;;;;;;4984164;28;20505;-68
2024/01/08 09:38:48;;;;;;;1.37;1.20;;;0.40;99.90;;;;;;4984454;28;20452;-67
2024/01/08 09:41:15;;;;;;;13.23;1.63;;;0.40;99.90;;;;;;4986337;28;20890;-68
2024/01/08 09:43:46;;;;;;;2.47;2.27;;;0.40;99.90;;;;;;4986571;28;20409;-68
2024/01/08 09:46:16;;;;;;;1.07;0.97;;;0.50;99.90;;;;;;4986788;28;20490;-68
2024/01/08 09:48:44;;;;;;;2.00;1.80;;;0.50;99.90;;;;;;4978696;28;20428;-68
2024/01/08 09:51:12;;;;;;;2.13;1.47;;;0.50;99.90;;;;;;4986796;28;21428;-68
2024/01/08 09:53:39;;;;;;;2.70;1.23;;;0.40;99.90;;;;;;4985046;28;20437;-68
2024/01/08 09:56:08;;;;;;;1.73;1.53;;;0.60;99.90;;;;;;4985458;28;20550;-67
2024/01/08 09:58:35;;;;;;;2.47;1.67;;;0.50;99.90;;;;;;4973155;28;20559;-67
2024/01/08 10:01:03;;;;;;;4.97;1.60;;;0.70;99.90;;;;;;4986921;28;20427;-68
2024/01/08 10:03:30;;;;;;;4.90;1.93;;;1.20;99.90;;;;;;4985097;28;20428;-68
2024/01/08 10:05:57;;;;;;;1.73;1.40;;;1.40;99.90;;;;;;4985276;28;20436;-68
2024/01/08 10:08:25;;;;;;;1.50;1.40;;;1.10;99.90;;;;;;4982852;28;20519;-69
2024/01/08 10:10:53;;;;;;;1.93;1.83;;;0.40;99.90;;;;;;4984624;28;20457;-68
2024/01/08 10:13:20;;;;;;;6.40;3.20;;;0.20;99.90;;;;;;4983571;28;20480;-67
2024/01/08 10:15:48;;;;;;;1.77;1.17;;;0.00;99.90;;;;;;4984646;28;20482;-68
2024/01/08 10:18:17;;;;;;;1.00;0.90;;;-0.10;99.90;;;;;;4981752;28;20509;-67
2024/01/08 10:20:44;;;;;;;4.77;2.00;;;0.00;99.90;;;;;;4986096;28;20436;-67
2024/01/08 10:23:16;;;;;;;1.83;1.63;;;0.20;99.90;;;;;;4986883;28;20497;-67
2024/01/08 10:25:50;;;;;;;2.27;1.53;;;0.10;99.90;;;;;;4982550;28;20460;-67
2024/01/08 10:28:18;;;;;;;0.97;0.83;;;-0.20;99.90;;;;;;4985484;28;20432;-67
2024/01/08 10:30:45;;;;;;;1.83;1.30;;;-0.40;99.90;;;;;;4982099;28;21008;-67
2024/01/08 10:33:12;;;;;;;3.00;1.70;;;-0.30;99.90;;;;;;4985441;28;20440;-67
2024/01/08 10:35:39;;;;;;;1.10;1.00;;;-0.20;99.90;;;;;;4987163;28;20474;-68
2024/01/08 10:38:08;;;;;;;1.83;1.40;;;-0.30;99.90;;;;;;4985781;28;20471;-68
2024/01/08 10:40:35;;;;;;;1.97;1.43;;;-0.40;99.90;;;;;;4986095;28;20454;-68
2024/01/08 10:43:03;;;;;;;3.20;2.90;;;-0.50;99.90;;;;;;4981252;28;20441;-67
2024/01/08 10:45:30;;;;;;;1.83;1.53;;;-0.50;99.90;;;;;;4982676;28;20448;-69
2024/01/08 10:48:06;;;;;;;1.53;1.43;;;-0.60;99.90;;;;;;4978083;28;20461;-68
2024/01/08 10:50:37;;;;;;;1.93;1.73;;;-0.60;99.90;;;;;;4978101;28;20856;-68
2024/01/08 10:53:09;;;;;;;2.53;1.30;;;-0.60;99.90;;;;;;4983593;28;20417;-68
2024/01/08 10:55:39;;;;;;;5.33;2.30;;;-0.50;99.90;;;;;;4986528;28;20482;-68
2024/01/08 10:58:10;;;;;;;1.10;1.00;;;-0.50;99.90;;;;;;4986045;28;20431;-68
2024/01/08 11:00:36;;;;;;;0.90;0.80;;;-0.60;99.90;;;;;;4984704;28;20436;-67
2024/01/08 11:03:04;;;;;;;1.53;1.03;;;-0.50;99.90;;;;;;4985393;28;20450;-68
2024/01/08 11:05:33;;;;;;;1.67;1.57;;;-0.50;99.90;;;;;;4987470;28;20864;-67
2024/01/08 11:08:00;;;;;;;3.37;2.13;;;-0.60;99.60;;;;;;4989190;28;20761;-67
2024/01/08 11:10:29;;;;;;;2.43;2.07;;;-0.60;99.40;;;;;;4987347;28;20467;-68
2024/01/08 11:12:56;;;;;;;2.60;2.03;;;-0.70;99.10;;;;;;4986920;28;20470;-67
2024/01/08 11:15:27;;;;;;;4.27;1.30;;;-0.80;98.90;;;;;;4990315;28;20445;-68
2024/01/08 11:17:55;;;;;;;1.53;1.43;;;-0.70;98.60;;;;;;4974288;28;20440;-68
2024/01/08 11:20:45;;;;;;;21.27;1.87;;;-0.70;99.20;;;;;;4989780;28;20490;-68
2024/01/08 11:23:36;;;;;;;3.40;2.53;;;-0.30;99.40;;;;;;4985955;28;20813;-68
2024/01/08 11:26:05;;;;;;;6.50;2.40;;;-0.20;99.80;;;;;;4988407;28;20524;-68
2024/01/08 11:28:32;;;;;;;1.53;1.00;;;-0.30;99.90;;;;;;4988949;28;20477;-68
2024/01/08 11:31:42;;;;;;;3.43;1.20;;;-0.20;99.90;;;;;;4988400;28;20848;-67
2024/01/08 11:34:44;;;;;;;1.57;1.47;;;-0.10;99.90;;;;;;4893971;29;20464;-69
2024/01/08 11:37:37;;;;;;;1.93;1.53;;;0.00;99.90;;;;;;4979171;28;20440;-68
2024/01/08 11:40:10;;;;;;;1.77;1.67;;;-0.20;99.30;;;;;;4985628;28;20432;-69
2024/01/08 11:42:37;;;;;;;1.40;0.97;;;-0.40;99.80;;;;;;4985719;28;20473;-67
2024/01/08 11:45:04;;;;;;;2.13;1.30;;;-0.40;99.90;;;;;;4984315;28;20493;-67
2024/01/08 11:47:33;;;;;;;1.87;1.03;;;-0.40;99.10;;;;;;4990576;28;20436;-67
2024/01/08 11:50:05;;;;;;;1.97;1.00;;;-0.50;99.60;;;;;;4982882;28;20820;-67
2024/01/08 11:52:34;;;;;;;1.63;1.07;;;-0.50;99.10;;;;;;4985881;28;20444;-68
2024/01/08 11:55:01;;;;;;;1.50;0.97;;;-0.30;99.40;;;;;;4989040;28;20473;-68
2024/01/08 11:57:28;;;;;;;2.07;1.87;;;0.10;99.50;;;;;;4988539;28;20413;-68
2024/01/08 11:59:55;;;;;;;2.37;2.20;;;0.30;98.50;;;;;;4982617;28;20436;-68
2024/01/08 12:02:24;;;;;;;2.80;1.97;;;0.50;98.20;;;;;;4987578;28;20489;-69
2024/01/08 12:04:57;;;;;;;1.50;1.40;;;0.60;97.70;;;;;;4989326;28;20974;-67
2024/01/08 12:07:24;;;;;;;1.40;1.20;;;0.70;96.80;;;;;;4983742;28;20446;-68
2024/01/08 12:09:52;;;;;;;1.13;1.03;;;0.90;96.90;;;;;;4987653;28;20425;-68
2024/01/08 12:12:19;;;;;;;2.80;1.50;;;1.00;95.50;;;;;;4985253;28;21036;-67
2024/01/08 12:14:47;;;;;;;3.00;1.20;;;0.90;94.70;;;;;;4989268;28;20559;-67
2024/01/08 12:17:15;;;;;;;1.00;0.90;;;1.10;94.50;;;;;;4987829;28;20908;-68
2024/01/08 12:19:45;;;;;;;2.97;2.30;;;1.40;94.60;;;;;;4986648;28;20956;-68
2024/01/08 12:22:14;;;;;;;3.57;1.43;;;1.80;92.80;;;;;;4983366;28;20840;-68
2024/01/08 12:24:44;;;;;;;1.47;1.37;;;2.10;92.70;;;;;;4985769;28;20481;-68
2024/01/08 12:27:15;;;;;;;6.80;1.47;;;2.60;92.00;;;;;;4982331;28;20919;-68
2024/01/08 12:29:43;;;;;;;2.50;1.30;;;2.70;90.40;;;;;;4988357;28;20442;-68
2024/01/08 12:32:11;;;;;;;1.63;1.00;;;2.90;90.70;;;;;;4985520;28;20475;-68
2024/01/08 12:34:39;;;;;;;1.10;0.90;;;2.70;88.20;;;;;;4985367;28;20478;-68
2024/01/08 12:37:07;;;;;;;1.83;1.63;;;2.30;88.30;;;;;;4982151;28;20447;-68
2024/01/08 12:39:35;;;;;;;1.10;0.90;;;2.40;87.70;;;;;;4984626;28;20465;-68
2024/01/08 12:42:05;;;;;;;1.67;0.87;;;2.20;87.60;;;;;;4985812;28;20439;-69
2024/01/08 12:44:33;;;;;;;1.93;1.60;;;2.60;87.50;;;;;;4983619;28;20452;-68
2024/01/08 12:47:02;;;;;;;1.60;1.03;;;2.60;85.30;;;;;;4987685;28;20439;-68
2024/01/08 12:49:28;;;;;;;1.17;1.00;;;2.20;84.20;;;;;;4979029;28;20651;-68
2024/01/08 12:51:58;;;;;;;1.30;1.10;;;2.20;84.70;;;;;;4982970;28;20468;-69